Portada
METAR-TAF:

METAR-TAF

Aeropuertos :

Aeropuerto de Tarbes-Lourdes-Pirineos

Tarbes Lourdes, Francia

latitud: 43-11N, longitud: 000-00W, altitud: 379 m

Observación

El informe se hizo hace 32 minutos, a las 08:30 UTC
Viento calma
Temperatura 4°C
Humedad 93%
Presión 1019 hPa
Visibilidad 10 km o más
sin nubes por debajo de 1500 m y sin presencia de cumulonimbus.

METAR: LFBT 180830Z AUTO 00000KT CAVOK 04/03 Q1019 NOSIG

Hora: 10:02 (09:02 UTC)

Pronóstico

El informe se hizo hace 4 horas y 2 minutos, a las 05:00 UTC
Pronóstico válido del 18 a las 06 UTC al 19 a las 06 UTC
Viento 3 kt con dirección variable
Visibilidad 10 km o más
sin nubes por debajo de 1500 m y sin presencia de cumulonimbus.
Evolucionando progresivamente
del 18 a las 22 UTC al 18 a las 24 UTC
Viento 8 kt del oeste-suroeste
Cielo nuboso a una altura de 800 ft

TAF: LFBT 180500Z 1806/1906 VRB03KT CAVOK BECMG 1822/1824 25008KT BKN008

Observaciones y pronósticos meteorológicos de más de 4000 aeropuertos (mensajes METAR y TAF).

Los puntos amarillos y rojos representan las estaciones disponibles.

Ponga el ratón en el punto deseado para ver el nombre de la estación.

Haga clic para ver las observaciones y los pronósticos meteorológicos.

Para cambiar el mapa : haga clic en los botones verdes con una cruz de color negro para hacer un zoom, en el botón verde con un guión para alejar o en las flechas verdes para mapas adyacentes.


METAR-TAF: